Terminal Aerodrome Forecast
Issued by NWS

Home | Current Version | Previous Version | Text Only | Print | Product List | Glossary On
Versions: 1 2 3 4 5 6 7 8 9 10 11 12 13 14 15 16 17 18 19 20 21
000
FTUS44 KLIX 280558
TAFGPT
TAF
KGPT 280558Z 2806/2906 02003KT P6SM SKC
     FM280700 27004KT P6SM BKN020
     FM281500 11004KT P6SM SCT030
     FM281800 15008KT P6SM SCT040
      TEMPO 2820/2824 18018G30KT 1SM +TSRA BKN025CB=

USA.gov is the U.S. government's official web portal to all federal, state and local government web resources and services.